sensor_id;sensor_type;location;lat;lon;timestamp;P1;durP1;ratioP1;P2;durP2;ratioP2
24761;SDS011;12865;51.934;10.330;2022-11-15T00:01:34;8.93;;;5.68;;
24761;SDS011;12865;51.934;10.330;2022-11-15T00:04:22;7.88;;;5.53;;
24761;SDS011;12865;51.934;10.330;2022-11-15T00:07:07;8.13;;;5.68;;
24761;SDS011;12865;51.934;10.330;2022-11-15T00:09:53;8.20;;;5.47;;
24761;SDS011;12865;51.934;10.330;2022-11-15T00:12:39;6.28;;;5.05;;
24761;SDS011;12865;51.934;10.330;2022-11-15T00:15:24;7.07;;;5.45;;
24761;SDS011;12865;51.934;10.330;2022-11-15T00:18:13;6.25;;;5.15;;
24761;SDS011;12865;51.934;10.330;2022-11-15T00:21:04;7.28;;;5.55;;
24761;SDS011;12865;51.934;10.330;2022-11-15T00:23:51;10.68;;;5.97;;
24761;SDS011;12865;51.934;10.330;2022-11-15T00:26:37;6.88;;;5.25;;
24761;SDS011;12865;51.934;10.330;2022-11-15T00:29:22;7.22;;;5.75;;
24761;SDS011;12865;51.934;10.330;2022-11-15T00:32:11;7.20;;;5.35;;
24761;SDS011;12865;51.934;10.330;2022-11-15T00:34:57;6.72;;;5.78;;
24761;SDS011;12865;51.934;10.330;2022-11-15T00:37:42;9.02;;;5.70;;
24761;SDS011;12865;51.934;10.330;2022-11-15T00:40:28;11.32;;;5.93;;
24761;SDS011;12865;51.934;10.330;2022-11-15T00:43:15;8.35;;;5.35;;
24761;SDS011;12865;51.934;10.330;2022-11-15T00:46:00;6.55;;;5.65;;
24761;SDS011;12865;51.934;10.330;2022-11-15T00:48:47;6.50;;;5.18;;
24761;SDS011;12865;51.934;10.330;2022-11-15T00:51:33;6.38;;;5.13;;
24761;SDS011;12865;51.934;10.330;2022-11-15T00:54:18;9.93;;;5.75;;
24761;SDS011;12865;51.934;10.330;2022-11-15T00:57:04;7.22;;;6.18;;
24761;SDS011;12865;51.934;10.330;2022-11-15T00:59:50;7.90;;;5.85;;
24761;SDS011;12865;51.934;10.330;2022-11-15T01:02:35;9.50;;;5.75;;
24761;SDS011;12865;51.934;10.330;2022-11-15T01:05:21;7.32;;;5.10;;
24761;SDS011;12865;51.934;10.330;2022-11-15T01:08:11;8.95;;;5.50;;
24761;SDS011;12865;51.934;10.330;2022-11-15T01:11:04;7.05;;;5.72;;
24761;SDS011;12865;51.934;10.330;2022-11-15T01:13:52;8.07;;;5.63;;
24761;SDS011;12865;51.934;10.330;2022-11-15T01:16:37;7.25;;;5.60;;
24761;SDS011;12865;51.934;10.330;2022-11-15T01:19:23;8.68;;;6.10;;
24761;SDS011;12865;51.934;10.330;2022-11-15T01:22:09;6.95;;;5.80;;
24761;SDS011;12865;51.934;10.330;2022-11-15T01:24:54;7.72;;;5.05;;
24761;SDS011;12865;51.934;10.330;2022-11-15T01:27:40;6.32;;;5.60;;
24761;SDS011;12865;51.934;10.330;2022-11-15T01:30:26;6.95;;;5.63;;
24761;SDS011;12865;51.934;10.330;2022-11-15T01:33:11;7.95;;;5.60;;
24761;SDS011;12865;51.934;10.330;2022-11-15T01:35:57;7.15;;;5.47;;
24761;SDS011;12865;51.934;10.330;2022-11-15T01:38:43;11.20;;;5.65;;
24761;SDS011;12865;51.934;10.330;2022-11-15T01:41:30;10.43;;;5.70;;
24761;SDS011;12865;51.934;10.330;2022-11-15T01:47:19;6.53;;;5.50;;
24761;SDS011;12865;51.934;10.330;2022-11-15T01:50:10;8.02;;;5.38;;
24761;SDS011;12865;51.934;10.330;2022-11-15T01:52:57;7.72;;;5.82;;
24761;SDS011;12865;51.934;10.330;2022-11-15T01:55:43;7.60;;;5.45;;
24761;SDS011;12865;51.934;10.330;2022-11-15T01:58:29;6.38;;;5.28;;
24761;SDS011;12865;51.934;10.330;2022-11-15T02:01:15;6.72;;;5.15;;
24761;SDS011;12865;51.934;10.330;2022-11-15T02:04:05;7.22;;;5.40;;
24761;SDS011;12865;51.934;10.330;2022-11-15T02:06:56;8.98;;;5.25;;
24761;SDS011;12865;51.934;10.330;2022-11-15T02:09:42;7.53;;;5.07;;
24761;SDS011;12865;51.934;10.330;2022-11-15T02:12:29;7.18;;;5.05;;
24761;SDS011;12865;51.934;10.330;2022-11-15T02:15:14;6.70;;;5.03;;
24761;SDS011;12865;51.934;10.330;2022-11-15T02:18:09;6.43;;;4.80;;
24761;SDS011;12865;51.934;10.330;2022-11-15T02:21:25;8.27;;;4.57;;
24761;SDS011;12865;51.934;10.330;2022-11-15T02:40:08;7.65;;;5.13;;
24761;SDS011;12865;51.934;10.330;2022-11-15T02:43:05;9.48;;;5.25;;
24761;SDS011;12865;51.934;10.330;2022-11-15T02:49:36;8.38;;;4.93;;
24761;SDS011;12865;51.934;10.330;2022-11-15T02:52:24;6.05;;;5.00;;
24761;SDS011;12865;51.934;10.330;2022-11-15T02:55:32;8.32;;;5.22;;
24761;SDS011;12865;51.934;10.330;2022-11-15T03:04:16;9.20;;;4.95;;
24761;SDS011;12865;51.934;10.330;2022-11-15T03:07:14;10.18;;;4.90;;
24761;SDS011;12865;51.934;10.330;2022-11-15T03:10:18;8.48;;;4.90;;
24761;SDS011;12865;51.934;10.330;2022-11-15T03:13:16;5.38;;;4.50;;
24761;SDS011;12865;51.934;10.330;2022-11-15T03:16:04;7.00;;;5.00;;
24761;SDS011;12865;51.934;10.330;2022-11-15T03:18:57;6.70;;;4.53;;
24761;SDS011;12865;51.934;10.330;2022-11-15T03:21:51;6.28;;;4.78;;
24761;SDS011;12865;51.934;10.330;2022-11-15T03:24:40;6.87;;;4.60;;
24761;SDS011;12865;51.934;10.330;2022-11-15T03:27:31;7.25;;;4.65;;
24761;SDS011;12865;51.934;10.330;2022-11-15T03:30:20;5.18;;;4.35;;
24761;SDS011;12865;51.934;10.330;2022-11-15T03:33:06;7.10;;;4.65;;
24761;SDS011;12865;51.934;10.330;2022-11-15T03:35:53;7.95;;;4.65;;
24761;SDS011;12865;51.934;10.330;2022-11-15T03:38:40;6.72;;;4.72;;
24761;SDS011;12865;51.934;10.330;2022-11-15T03:41:40;6.40;;;4.68;;
24761;SDS011;12865;51.934;10.330;2022-11-15T03:50:09;6.50;;;4.60;;
24761;SDS011;12865;51.934;10.330;2022-11-15T03:52:58;4.93;;;4.38;;
24761;SDS011;12865;51.934;10.330;2022-11-15T03:55:44;6.57;;;4.28;;
24761;SDS011;12865;51.934;10.330;2022-11-15T03:58:30;5.22;;;3.90;;
24761;SDS011;12865;51.934;10.330;2022-11-15T04:01:15;5.63;;;4.30;;
24761;SDS011;12865;51.934;10.330;2022-11-15T04:04:01;7.80;;;4.32;;
24761;SDS011;12865;51.934;10.330;2022-11-15T04:06:47;7.68;;;4.63;;
24761;SDS011;12865;51.934;10.330;2022-11-15T04:09:32;6.40;;;3.88;;
24761;SDS011;12865;51.934;10.330;2022-11-15T04:12:18;4.70;;;4.07;;
24761;SDS011;12865;51.934;10.330;2022-11-15T04:15:20;5.55;;;3.75;;
24761;SDS011;12865;51.934;10.330;2022-11-15T04:18:07;5.68;;;3.85;;
24761;SDS011;12865;51.934;10.330;2022-11-15T04:20:52;7.68;;;3.90;;
24761;SDS011;12865;51.934;10.330;2022-11-15T04:23:56;7.68;;;4.10;;
24761;SDS011;12865;51.934;10.330;2022-11-15T04:26:57;5.95;;;3.95;;
24761;SDS011;12865;51.934;10.330;2022-11-15T04:29:43;7.80;;;4.60;;
24761;SDS011;12865;51.934;10.330;2022-11-15T04:32:29;5.97;;;3.90;;
24761;SDS011;12865;51.934;10.330;2022-11-15T04:35:14;5.88;;;3.92;;
24761;SDS011;12865;51.934;10.330;2022-11-15T04:38:00;4.45;;;3.67;;
24761;SDS011;12865;51.934;10.330;2022-11-15T04:40:47;4.00;;;3.30;;
24761;SDS011;12865;51.934;10.330;2022-11-15T04:43:33;4.97;;;3.70;;
24761;SDS011;12865;51.934;10.330;2022-11-15T04:46:18;3.65;;;3.30;;
24761;SDS011;12865;51.934;10.330;2022-11-15T04:49:04;5.80;;;3.80;;
24761;SDS011;12865;51.934;10.330;2022-11-15T04:51:50;5.47;;;3.13;;
24761;SDS011;12865;51.934;10.330;2022-11-15T04:54:35;5.53;;;3.35;;
24761;SDS011;12865;51.934;10.330;2022-11-15T04:57:21;5.53;;;3.60;;
24761;SDS011;12865;51.934;10.330;2022-11-15T05:00:08;3.92;;;3.53;;
24761;SDS011;12865;51.934;10.330;2022-11-15T05:02:57;5.13;;;3.60;;
24761;SDS011;12865;51.934;10.330;2022-11-15T05:06:01;6.40;;;3.83;;
24761;SDS011;12865;51.934;10.330;2022-11-15T05:08:47;6.35;;;3.88;;
24761;SDS011;12865;51.934;10.330;2022-11-15T05:11:33;5.85;;;3.72;;
24761;SDS011;12865;51.934;10.330;2022-11-15T05:14:19;8.32;;;4.35;;
24761;SDS011;12865;51.934;10.330;2022-11-15T05:17:04;5.65;;;4.13;;
24761;SDS011;12865;51.934;10.330;2022-11-15T05:19:50;4.68;;;3.90;;
24761;SDS011;12865;51.934;10.330;2022-11-15T05:22:37;5.90;;;4.43;;
24761;SDS011;12865;51.934;10.330;2022-11-15T05:25:23;6.65;;;4.60;;
24761;SDS011;12865;51.934;10.330;2022-11-15T05:28:09;4.40;;;4.00;;
24761;SDS011;12865;51.934;10.330;2022-11-15T05:31:05;7.65;;;4.45;;
24761;SDS011;12865;51.934;10.330;2022-11-15T05:33:56;6.18;;;4.43;;
24761;SDS011;12865;51.934;10.330;2022-11-15T05:36:44;5.50;;;4.50;;
24761;SDS011;12865;51.934;10.330;2022-11-15T05:39:31;6.30;;;4.38;;
24761;SDS011;12865;51.934;10.330;2022-11-15T05:42:16;4.47;;;4.03;;
24761;SDS011;12865;51.934;10.330;2022-11-15T05:45:03;7.15;;;4.57;;
24761;SDS011;12865;51.934;10.330;2022-11-15T05:47:53;6.50;;;4.65;;
24761;SDS011;12865;51.934;10.330;2022-11-15T05:50:42;7.80;;;4.65;;
24761;SDS011;12865;51.934;10.330;2022-11-15T05:53:30;7.60;;;4.43;;
24761;SDS011;12865;51.934;10.330;2022-11-15T05:56:16;7.13;;;4.57;;
24761;SDS011;12865;51.934;10.330;2022-11-15T05:59:02;5.22;;;3.90;;
24761;SDS011;12865;51.934;10.330;2022-11-15T06:01:48;6.10;;;4.22;;
24761;SDS011;12865;51.934;10.330;2022-11-15T06:04:34;4.82;;;4.07;;
24761;SDS011;12865;51.934;10.330;2022-11-15T06:07:20;5.38;;;4.32;;
24761;SDS011;12865;51.934;10.330;2022-11-15T06:10:06;7.00;;;4.55;;
24761;SDS011;12865;51.934;10.330;2022-11-15T06:13:02;4.80;;;4.30;;
24761;SDS011;12865;51.934;10.330;2022-11-15T06:15:49;6.63;;;4.40;;
24761;SDS011;12865;51.934;10.330;2022-11-15T06:18:35;5.82;;;3.90;;
24761;SDS011;12865;51.934;10.330;2022-11-15T06:21:22;5.88;;;4.20;;
24761;SDS011;12865;51.934;10.330;2022-11-15T06:24:07;7.20;;;4.50;;
24761;SDS011;12865;51.934;10.330;2022-11-15T06:26:53;6.03;;;3.85;;
24761;SDS011;12865;51.934;10.330;2022-11-15T06:29:39;5.47;;;4.20;;
24761;SDS011;12865;51.934;10.330;2022-11-15T06:32:25;6.75;;;4.35;;
24761;SDS011;12865;51.934;10.330;2022-11-15T06:35:10;6.00;;;4.35;;
24761;SDS011;12865;51.934;10.330;2022-11-15T06:38:01;8.27;;;5.05;;
24761;SDS011;12865;51.934;10.330;2022-11-15T06:40:52;9.20;;;5.60;;
24761;SDS011;12865;51.934;10.330;2022-11-15T06:43:37;8.02;;;4.80;;
24761;SDS011;12865;51.934;10.330;2022-11-15T06:46:24;6.85;;;5.20;;
24761;SDS011;12865;51.934;10.330;2022-11-15T06:49:09;6.93;;;5.47;;
24761;SDS011;12865;51.934;10.330;2022-11-15T06:51:55;10.27;;;6.03;;
24761;SDS011;12865;51.934;10.330;2022-11-15T06:54:41;4.88;;;4.47;;
24761;SDS011;12865;51.934;10.330;2022-11-15T06:57:26;5.40;;;4.38;;
24761;SDS011;12865;51.934;10.330;2022-11-15T07:00:12;5.28;;;3.90;;
24761;SDS011;12865;51.934;10.330;2022-11-15T07:03:01;5.38;;;4.05;;
24761;SDS011;12865;51.934;10.330;2022-11-15T07:05:51;7.65;;;4.20;;
24761;SDS011;12865;51.934;10.330;2022-11-15T07:08:40;4.88;;;3.90;;
24761;SDS011;12865;51.934;10.330;2022-11-15T07:11:27;5.50;;;4.25;;
24761;SDS011;12865;51.934;10.330;2022-11-15T07:14:12;6.22;;;3.97;;
24761;SDS011;12865;51.934;10.330;2022-11-15T07:16:58;4.22;;;3.83;;
24761;SDS011;12865;51.934;10.330;2022-11-15T07:19:44;4.93;;;3.75;;
24761;SDS011;12865;51.934;10.330;2022-11-15T07:22:29;5.72;;;3.97;;
24761;SDS011;12865;51.934;10.330;2022-11-15T07:25:15;5.18;;;4.00;;
24761;SDS011;12865;51.934;10.330;2022-11-15T07:28:01;4.38;;;3.80;;
24761;SDS011;12865;51.934;10.330;2022-11-15T07:30:47;10.98;;;4.50;;
24761;SDS011;12865;51.934;10.330;2022-11-15T07:33:33;4.18;;;3.53;;
24761;SDS011;12865;51.934;10.330;2022-11-15T07:36:19;4.93;;;3.53;;
24761;SDS011;12865;51.934;10.330;2022-11-15T07:39:05;4.93;;;3.55;;
24761;SDS011;12865;51.934;10.330;2022-11-15T07:41:50;4.68;;;3.83;;
24761;SDS011;12865;51.934;10.330;2022-11-15T07:44:56;6.15;;;4.18;;
24761;SDS011;12865;51.934;10.330;2022-11-15T07:47:44;4.85;;;3.53;;
24761;SDS011;12865;51.934;10.330;2022-11-15T07:50:31;4.22;;;3.83;;
24761;SDS011;12865;51.934;10.330;2022-11-15T07:53:16;5.43;;;3.88;;
24761;SDS011;12865;51.934;10.330;2022-11-15T07:56:02;6.43;;;3.90;;
24761;SDS011;12865;51.934;10.330;2022-11-15T07:58:51;4.30;;;3.42;;
24761;SDS011;12865;51.934;10.330;2022-11-15T08:01:37;7.68;;;4.25;;
24761;SDS011;12865;51.934;10.330;2022-11-15T08:04:22;6.47;;;3.50;;
24761;SDS011;12865;51.934;10.330;2022-11-15T08:07:08;5.53;;;3.47;;
24761;SDS011;12865;51.934;10.330;2022-11-15T08:09:54;6.55;;;3.42;;
24761;SDS011;12865;51.934;10.330;2022-11-15T08:12:40;4.55;;;3.42;;
24761;SDS011;12865;51.934;10.330;2022-11-15T08:15:26;5.30;;;3.55;;
24761;SDS011;12865;51.934;10.330;2022-11-15T08:18:13;3.70;;;3.15;;
24761;SDS011;12865;51.934;10.330;2022-11-15T08:21:01;3.97;;;3.22;;
24761;SDS011;12865;51.934;10.330;2022-11-15T08:23:47;3.88;;;3.30;;
24761;SDS011;12865;51.934;10.330;2022-11-15T08:26:33;3.35;;;2.97;;
24761;SDS011;12865;51.934;10.330;2022-11-15T08:29:19;3.45;;;3.15;;
24761;SDS011;12865;51.934;10.330;2022-11-15T08:32:04;4.65;;;2.80;;
24761;SDS011;12865;51.934;10.330;2022-11-15T08:34:50;5.25;;;3.10;;
24761;SDS011;12865;51.934;10.330;2022-11-15T08:37:36;4.57;;;2.83;;
24761;SDS011;12865;51.934;10.330;2022-11-15T08:40:21;3.83;;;2.85;;
24761;SDS011;12865;51.934;10.330;2022-11-15T08:43:07;4.07;;;3.33;;
24761;SDS011;12865;51.934;10.330;2022-11-15T08:45:55;5.15;;;3.38;;
24761;SDS011;12865;51.934;10.330;2022-11-15T08:48:42;4.40;;;3.25;;
24761;SDS011;12865;51.934;10.330;2022-11-15T08:51:28;4.03;;;2.95;;
24761;SDS011;12865;51.934;10.330;2022-11-15T08:54:14;4.05;;;3.20;;
24761;SDS011;12865;51.934;10.330;2022-11-15T08:56:59;3.08;;;2.88;;
24761;SDS011;12865;51.934;10.330;2022-11-15T08:59:45;3.58;;;2.78;;
24761;SDS011;12865;51.934;10.330;2022-11-15T09:02:31;3.45;;;3.13;;
24761;SDS011;12865;51.934;10.330;2022-11-15T09:05:16;4.97;;;3.05;;
24761;SDS011;12865;51.934;10.330;2022-11-15T09:08:03;3.85;;;2.80;;
24761;SDS011;12865;51.934;10.330;2022-11-15T09:10:49;3.40;;;2.80;;
24761;SDS011;12865;51.934;10.330;2022-11-15T09:13:36;3.72;;;2.80;;
24761;SDS011;12865;51.934;10.330;2022-11-15T09:16:24;4.65;;;2.97;;
24761;SDS011;12865;51.934;10.330;2022-11-15T09:19:10;3.20;;;2.70;;
24761;SDS011;12865;51.934;10.330;2022-11-15T09:21:56;3.95;;;3.00;;
24761;SDS011;12865;51.934;10.330;2022-11-15T09:24:42;5.35;;;2.75;;
24761;SDS011;12865;51.934;10.330;2022-11-15T09:27:30;3.08;;;2.67;;
24761;SDS011;12865;51.934;10.330;2022-11-15T09:33:06;3.55;;;2.65;;
24761;SDS011;12865;51.934;10.330;2022-11-15T09:35:53;2.60;;;2.40;;
24761;SDS011;12865;51.934;10.330;2022-11-15T09:38:39;2.83;;;2.60;;
24761;SDS011;12865;51.934;10.330;2022-11-15T09:48:00;2.70;;;2.42;;
24761;SDS011;12865;51.934;10.330;2022-11-15T09:53:37;5.10;;;2.47;;
24761;SDS011;12865;51.934;10.330;2022-11-15T09:56:34;3.08;;;2.28;;
24761;SDS011;12865;51.934;10.330;2022-11-15T09:59:44;2.78;;;2.58;;
24761;SDS011;12865;51.934;10.330;2022-11-15T10:02:42;3.72;;;2.08;;
24761;SDS011;12865;51.934;10.330;2022-11-15T10:05:30;2.10;;;1.70;;
24761;SDS011;12865;51.934;10.330;2022-11-15T10:08:24;2.92;;;2.00;;
24761;SDS011;12865;51.934;10.330;2022-11-15T10:11:30;2.95;;;2.05;;
24761;SDS011;12865;51.934;10.330;2022-11-15T10:14:18;3.65;;;2.05;;
24761;SDS011;12865;51.934;10.330;2022-11-15T10:20:47;2.92;;;2.13;;
24761;SDS011;12865;51.934;10.330;2022-11-15T10:23:33;3.38;;;1.80;;
24761;SDS011;12865;51.934;10.330;2022-11-15T10:26:19;1.98;;;1.80;;
24761;SDS011;12865;51.934;10.330;2022-11-15T10:29:04;2.60;;;1.98;;
24761;SDS011;12865;51.934;10.330;2022-11-15T10:31:50;2.45;;;2.10;;
24761;SDS011;12865;51.934;10.330;2022-11-15T10:34:36;2.10;;;1.92;;
24761;SDS011;12865;51.934;10.330;2022-11-15T10:37:28;2.10;;;1.88;;
24761;SDS011;12865;51.934;10.330;2022-11-15T10:43:06;2.10;;;1.92;;
24761;SDS011;12865;51.934;10.330;2022-11-15T10:45:54;2.35;;;1.88;;
24761;SDS011;12865;51.934;10.330;2022-11-15T10:48:40;2.30;;;2.05;;
24761;SDS011;12865;51.934;10.330;2022-11-15T10:51:26;2.55;;;1.80;;
24761;SDS011;12865;51.934;10.330;2022-11-15T10:54:22;3.22;;;1.90;;
24761;SDS011;12865;51.934;10.330;2022-11-15T10:57:16;2.78;;;2.05;;
24761;SDS011;12865;51.934;10.330;2022-11-15T11:00:25;2.20;;;2.00;;
24761;SDS011;12865;51.934;10.330;2022-11-15T11:06:14;2.70;;;1.90;;
24761;SDS011;12865;51.934;10.330;2022-11-15T11:09:03;2.40;;;2.20;;
24761;SDS011;12865;51.934;10.330;2022-11-15T11:11:51;6.95;;;2.20;;
24761;SDS011;12865;51.934;10.330;2022-11-15T11:14:38;3.58;;;2.08;;
24761;SDS011;12865;51.934;10.330;2022-11-15T11:24:05;3.75;;;2.45;;
24761;SDS011;12865;51.934;10.330;2022-11-15T11:30:14;3.90;;;2.08;;
24761;SDS011;12865;51.934;10.330;2022-11-15T11:33:07;3.83;;;2.17;;
24761;SDS011;12865;51.934;10.330;2022-11-15T11:42:26;2.80;;;2.00;;
24761;SDS011;12865;51.934;10.330;2022-11-15T11:45:29;2.65;;;2.08;;
24761;SDS011;12865;51.934;10.330;2022-11-15T11:51:32;2.65;;;2.22;;
24761;SDS011;12865;51.934;10.330;2022-11-15T12:09:16;2.38;;;2.17;;
24761;SDS011;12865;51.934;10.330;2022-11-15T12:15:18;3.03;;;2.28;;
24761;SDS011;12865;51.934;10.330;2022-11-15T12:18:08;2.95;;;2.10;;
24761;SDS011;12865;51.934;10.330;2022-11-15T12:21:05;3.22;;;2.40;;
24761;SDS011;12865;51.934;10.330;2022-11-15T12:24:17;3.60;;;2.20;;
24761;SDS011;12865;51.934;10.330;2022-11-15T12:30:09;2.53;;;2.25;;
24761;SDS011;12865;51.934;10.330;2022-11-15T12:32:59;4.18;;;2.22;;
24761;SDS011;12865;51.934;10.330;2022-11-15T12:35:56;2.20;;;2.00;;
24761;SDS011;12865;51.934;10.330;2022-11-15T12:38:59;3.65;;;2.28;;
24761;SDS011;12865;51.934;10.330;2022-11-15T12:47:28;2.97;;;2.55;;
24761;SDS011;12865;51.934;10.330;2022-11-15T12:50:13;2.63;;;2.42;;
24761;SDS011;12865;51.934;10.330;2022-11-15T12:59:02;2.58;;;2.38;;
24761;SDS011;12865;51.934;10.330;2022-11-15T13:04:33;3.30;;;2.13;;
24761;SDS011;12865;51.934;10.330;2022-11-15T13:13:12;2.25;;;2.08;;
24761;SDS011;12865;51.934;10.330;2022-11-15T13:16:28;3.90;;;2.05;;
24761;SDS011;12865;51.934;10.330;2022-11-15T13:19:14;2.35;;;2.15;;
24761;SDS011;12865;51.934;10.330;2022-11-15T13:22:04;2.05;;;1.95;;
24761;SDS011;12865;51.934;10.330;2022-11-15T13:31:30;3.75;;;2.20;;
24761;SDS011;12865;51.934;10.330;2022-11-15T13:34:29;3.58;;;1.90;;
24761;SDS011;12865;51.934;10.330;2022-11-15T13:40:15;2.58;;;2.05;;
24761;SDS011;12865;51.934;10.330;2022-11-15T13:46:11;3.83;;;2.47;;
24761;SDS011;12865;51.934;10.330;2022-11-15T13:49:10;2.80;;;2.42;;
24761;SDS011;12865;51.934;10.330;2022-11-15T13:51:59;2.50;;;2.10;;
24761;SDS011;12865;51.934;10.330;2022-11-15T13:57:45;2.80;;;2.47;;
24761;SDS011;12865;51.934;10.330;2022-11-15T14:01:00;2.50;;;2.30;;
24761;SDS011;12865;51.934;10.330;2022-11-15T14:03:56;3.13;;;2.20;;
24761;SDS011;12865;51.934;10.330;2022-11-15T14:06:44;3.35;;;2.40;;
24761;SDS011;12865;51.934;10.330;2022-11-15T14:09:34;3.92;;;2.38;;
24761;SDS011;12865;51.934;10.330;2022-11-15T14:15:34;3.72;;;2.58;;
24761;SDS011;12865;51.934;10.330;2022-11-15T14:24:16;4.88;;;2.55;;
24761;SDS011;12865;51.934;10.330;2022-11-15T14:30:14;7.00;;;2.70;;
24761;SDS011;12865;51.934;10.330;2022-11-15T14:33:01;3.05;;;2.60;;
24761;SDS011;12865;51.934;10.330;2022-11-15T14:35:48;5.63;;;2.80;;
24761;SDS011;12865;51.934;10.330;2022-11-15T14:38:34;2.65;;;2.15;;
24761;SDS011;12865;51.934;10.330;2022-11-15T14:41:22;4.90;;;2.47;;
24761;SDS011;12865;51.934;10.330;2022-11-15T14:44:10;6.50;;;3.53;;
24761;SDS011;12865;51.934;10.330;2022-11-15T14:46:57;7.07;;;3.55;;
24761;SDS011;12865;51.934;10.330;2022-11-15T14:49:43;4.43;;;2.72;;
24761;SDS011;12865;51.934;10.330;2022-11-15T14:52:30;3.40;;;3.10;;
24761;SDS011;12865;51.934;10.330;2022-11-15T14:55:22;10.93;;;3.13;;
24761;SDS011;12865;51.934;10.330;2022-11-15T15:00:55;6.43;;;2.72;;
24761;SDS011;12865;51.934;10.330;2022-11-15T15:03:41;3.28;;;2.45;;
24761;SDS011;12865;51.934;10.330;2022-11-15T15:06:29;4.38;;;2.70;;
24761;SDS011;12865;51.934;10.330;2022-11-15T15:09:15;2.92;;;2.42;;
24761;SDS011;12865;51.934;10.330;2022-11-15T15:12:01;6.38;;;2.88;;
24761;SDS011;12865;51.934;10.330;2022-11-15T15:14:47;7.82;;;2.58;;
24761;SDS011;12865;51.934;10.330;2022-11-15T15:17:35;3.38;;;2.67;;
24761;SDS011;12865;51.934;10.330;2022-11-15T15:20:20;6.05;;;3.17;;
24761;SDS011;12865;51.934;10.330;2022-11-15T15:23:16;3.63;;;2.38;;
24761;SDS011;12865;51.934;10.330;2022-11-15T15:26:03;3.92;;;2.80;;
24761;SDS011;12865;51.934;10.330;2022-11-15T15:28:49;4.88;;;2.80;;
24761;SDS011;12865;51.934;10.330;2022-11-15T15:31:36;3.50;;;2.90;;
24761;SDS011;12865;51.934;10.330;2022-11-15T15:34:22;4.80;;;2.75;;
24761;SDS011;12865;51.934;10.330;2022-11-15T15:40:10;3.90;;;3.00;;
24761;SDS011;12865;51.934;10.330;2022-11-15T15:43:00;4.38;;;2.70;;
24761;SDS011;12865;51.934;10.330;2022-11-15T15:45:46;4.32;;;2.42;;
24761;SDS011;12865;51.934;10.330;2022-11-15T15:48:32;6.13;;;3.35;;
24761;SDS011;12865;51.934;10.330;2022-11-15T15:53:45;5.25;;;3.67;;
24761;SDS011;12865;51.934;10.330;2022-11-15T15:56:31;4.65;;;3.72;;
24761;SDS011;12865;51.934;10.330;2022-11-15T15:59:17;4.70;;;3.90;;
24761;SDS011;12865;51.934;10.330;2022-11-15T16:02:03;4.82;;;3.30;;
24761;SDS011;12865;51.934;10.330;2022-11-15T16:04:49;7.80;;;3.60;;
24761;SDS011;12865;51.934;10.330;2022-11-15T16:07:35;4.32;;;3.40;;
24761;SDS011;12865;51.934;10.330;2022-11-15T16:10:22;3.53;;;3.15;;
24761;SDS011;12865;51.934;10.330;2022-11-15T16:13:13;3.88;;;3.38;;
24761;SDS011;12865;51.934;10.330;2022-11-15T16:15:58;4.25;;;3.10;;
24761;SDS011;12865;51.934;10.330;2022-11-15T16:18:45;5.55;;;3.33;;
24761;SDS011;12865;51.934;10.330;2022-11-15T16:21:31;4.63;;;3.35;;
24761;SDS011;12865;51.934;10.330;2022-11-15T16:24:17;5.07;;;3.78;;
24761;SDS011;12865;51.934;10.330;2022-11-15T16:27:03;9.02;;;4.47;;
24761;SDS011;12865;51.934;10.330;2022-11-15T16:29:49;5.88;;;4.03;;
24761;SDS011;12865;51.934;10.330;2022-11-15T16:32:35;4.53;;;3.50;;
24761;SDS011;12865;51.934;10.330;2022-11-15T16:35:21;5.38;;;3.50;;
24761;SDS011;12865;51.934;10.330;2022-11-15T16:38:08;7.68;;;4.18;;
24761;SDS011;12865;51.934;10.330;2022-11-15T16:40:59;6.05;;;3.60;;
24761;SDS011;12865;51.934;10.330;2022-11-15T16:43:45;7.03;;;3.72;;
24761;SDS011;12865;51.934;10.330;2022-11-15T16:46:31;7.15;;;3.80;;
24761;SDS011;12865;51.934;10.330;2022-11-15T16:49:17;5.72;;;3.40;;
24761;SDS011;12865;51.934;10.330;2022-11-15T16:52:04;7.53;;;3.90;;
24761;SDS011;12865;51.934;10.330;2022-11-15T16:54:50;6.63;;;3.42;;
24761;SDS011;12865;51.934;10.330;2022-11-15T16:57:35;7.50;;;4.53;;
24761;SDS011;12865;51.934;10.330;2022-11-15T17:00:21;8.15;;;4.15;;
24761;SDS011;12865;51.934;10.330;2022-11-15T17:03:07;8.85;;;5.05;;
24761;SDS011;12865;51.934;10.330;2022-11-15T17:05:56;8.07;;;4.65;;
24761;SDS011;12865;51.934;10.330;2022-11-15T17:08:42;6.68;;;4.70;;
24761;SDS011;12865;51.934;10.330;2022-11-15T17:11:31;5.72;;;4.88;;
24761;SDS011;12865;51.934;10.330;2022-11-15T17:14:17;5.90;;;5.03;;
24761;SDS011;12865;51.934;10.330;2022-11-15T17:17:03;7.82;;;5.60;;
24761;SDS011;12865;51.934;10.330;2022-11-15T17:19:49;5.60;;;5.10;;
24761;SDS011;12865;51.934;10.330;2022-11-15T17:22:35;8.40;;;5.35;;
24761;SDS011;12865;51.934;10.330;2022-11-15T17:25:21;6.38;;;4.95;;
24761;SDS011;12865;51.934;10.330;2022-11-15T17:28:07;6.72;;;4.97;;
24761;SDS011;12865;51.934;10.330;2022-11-15T17:30:53;8.25;;;5.72;;
24761;SDS011;12865;51.934;10.330;2022-11-15T17:33:39;5.88;;;4.63;;
24761;SDS011;12865;51.934;10.330;2022-11-15T17:36:25;7.53;;;5.32;;
24761;SDS011;12865;51.934;10.330;2022-11-15T17:39:11;7.15;;;6.03;;
24761;SDS011;12865;51.934;10.330;2022-11-15T17:41:57;6.82;;;4.68;;
24761;SDS011;12865;51.934;10.330;2022-11-15T17:44:43;10.75;;;4.50;;
24761;SDS011;12865;51.934;10.330;2022-11-15T17:47:28;7.78;;;5.47;;
24761;SDS011;12865;51.934;10.330;2022-11-15T17:50:14;6.03;;;4.65;;
24761;SDS011;12865;51.934;10.330;2022-11-15T17:53:02;5.03;;;4.53;;
24761;SDS011;12865;51.934;10.330;2022-11-15T17:55:47;9.10;;;5.68;;
24761;SDS011;12865;51.934;10.330;2022-11-15T17:58:33;8.60;;;4.45;;
24761;SDS011;12865;51.934;10.330;2022-11-15T18:04:06;7.50;;;4.18;;
24761;SDS011;12865;51.934;10.330;2022-11-15T18:06:53;8.32;;;4.28;;
24761;SDS011;12865;51.934;10.330;2022-11-15T18:09:40;6.10;;;4.03;;
24761;SDS011;12865;51.934;10.330;2022-11-15T18:12:28;4.55;;;3.90;;
24761;SDS011;12865;51.934;10.330;2022-11-15T18:15:13;5.53;;;4.35;;
24761;SDS011;12865;51.934;10.330;2022-11-15T18:17:59;4.32;;;3.92;;
24761;SDS011;12865;51.934;10.330;2022-11-15T18:20:45;7.75;;;4.40;;
24761;SDS011;12865;51.934;10.330;2022-11-15T18:23:31;6.50;;;4.15;;
24761;SDS011;12865;51.934;10.330;2022-11-15T18:26:18;7.05;;;4.43;;
24761;SDS011;12865;51.934;10.330;2022-11-15T18:29:04;5.50;;;3.72;;
24761;SDS011;12865;51.934;10.330;2022-11-15T18:31:50;8.13;;;4.85;;
24761;SDS011;12865;51.934;10.330;2022-11-15T18:34:39;5.50;;;4.25;;
24761;SDS011;12865;51.934;10.330;2022-11-15T18:37:25;11.15;;;7.68;;
24761;SDS011;12865;51.934;10.330;2022-11-15T18:40:11;8.43;;;6.78;;
24761;SDS011;12865;51.934;10.330;2022-11-15T18:42:56;6.72;;;5.72;;
24761;SDS011;12865;51.934;10.330;2022-11-15T18:45:42;11.43;;;6.05;;
24761;SDS011;12865;51.934;10.330;2022-11-15T18:48:28;7.82;;;5.82;;
24761;SDS011;12865;51.934;10.330;2022-11-15T18:51:16;7.28;;;4.72;;
24761;SDS011;12865;51.934;10.330;2022-11-15T18:54:04;6.60;;;4.97;;
24761;SDS011;12865;51.934;10.330;2022-11-15T18:56:49;8.48;;;4.90;;
24761;SDS011;12865;51.934;10.330;2022-11-15T18:59:35;7.82;;;4.68;;
24761;SDS011;12865;51.934;10.330;2022-11-15T19:02:21;6.72;;;5.22;;
24761;SDS011;12865;51.934;10.330;2022-11-15T19:05:06;5.70;;;5.07;;
24761;SDS011;12865;51.934;10.330;2022-11-15T19:07:52;5.65;;;4.97;;
24761;SDS011;12865;51.934;10.330;2022-11-15T19:10:38;5.13;;;4.57;;
24761;SDS011;12865;51.934;10.330;2022-11-15T19:13:23;9.70;;;6.55;;